• Join FlightAware (Why Join?)
  • Login
  • US Flag 
03:44AM EDT


 

Airport Tracker/Info


-or-


 

Live Flight TrackerFlight Track Log ✈ SKW5516 ✈ 10-Jun-2013 ✈ KFAT - KLAX

Flight Track Log - Related Links

Times and Time Zones

All times are in EDT time to prevent confusion due to time zone crossing. See the SKW5516 flight status page for this flight to view local times or setup timezone preferences in your user account.

Time Position Orientation Groundspeed Altitude Reporting Facility
EDT Latitude Longitude Course Direction KTS MPH feet Rate Location/Type
06:19PM 36.5311 -119.6012 159° South  Level Estimated
06:20PM 36.4698 -119.5720 159° South  Level Estimated
06:21PM 36.4084 -119.5428 159° South  Level Estimated
06:22PM 36.3471 -119.5136 159° South  Level Estimated
06:23PM 36.2857 -119.4845 159° South  Level Estimated
06:24PM 36.2244 -119.4555 159° South  Level Estimated
06:25PM 36.1630 -119.4265 159° South  Level Estimated
06:26PM 36.1016 -119.3975 159° South  Level Estimated
06:27PM 36.0402 -119.3686 159° South  Level Estimated
06:28PM 35.9788 -119.3397 159° South  Level Estimated
06:29PM 35.9174 -119.3109 159° South  Level Estimated
06:30PM 35.8560 -119.2821 159° South  Level Estimated
06:31PM 35.7946 -119.2533 159° South  Level Estimated
06:32PM 35.7332 -119.2246 159° South  Level Estimated
06:33PM 35.6717 -119.1960 159° South  Level Estimated
06:34PM 35.6103 -119.1674 159° South  Level Estimated
06:35PM 35.5489 -119.1388 159° South  Level Estimated
06:36PM 35.4874 -119.1103 159° South  Level Estimated
06:37PM 35.4260 -119.0818 159° South  Level Estimated
06:38PM 35.3645 -119.0534 159° South  Level Estimated
06:39PM 35.3030 -119.0250 159° South  Level Estimated
06:40PM 35.2416 -118.9966 159° South  Level Estimated
06:41PM 35.1801 -118.9683 159° South  Level Estimated
06:42PM 35.1186 -118.9401 159° South  Level Estimated
06:43PM 35.0571 -118.9118 159° South  Level Estimated
06:44PM 34.9956 -118.8837 159° South  Level Estimated
06:45PM 34.9341 -118.8555 159° South  Level Estimated
06:46PM 34.8726 -118.8274 159° South  Level Estimated
06:47PM 34.8110 -118.7994 159° South  Level Estimated
06:48PM 34.7495 -118.7714 159° South  Level Estimated
06:49PM 34.6880 -118.7434 160° South  Level Estimated
06:50PM 34.6264 -118.7155 160° South  Level Estimated
06:51PM 34.5649 -118.6876 160° South  Level Estimated
06:52PM 34.5033 -118.6598 160° South  Level Estimated
06:53PM 34.4418 -118.6320 160° South  Level Estimated
06:54PM 34.3802 -118.6042 160° South  Level Estimated
06:55PM 34.3186 -118.5765 160° South  Level Estimated
06:56PM 34.2570 -118.5488 160° South  Level Estimated
06:57PM 34.1955 -118.5212 160° South  Level Estimated
06:58PM 34.1339 -118.4936 160° South  Level Estimated
06:59PM 34.0723 -118.4660 160° South  Level Estimated
07:00PM 34.0107 -118.4385 160° South  Level Estimated
07:01PM 33.9491 -118.4110 160° South  Level Estimated
07:02PM 33.9425 -118.4081 160° South  Level Estimated
07:03PM 33.9425 -118.4081 164° South  Level Estimated
07:04PM 33.9425 -118.4081 164° South  Level Estimated
07:05PM 33.9425 -118.4081 164° South  Level Estimated
07:06PM 33.9425 -118.4081 164° South  Level Estimated
07:07PM 33.9425 -118.4081 164° South  Level Estimated
07:08PM 33.9425 -118.4081 164° South  Level Estimated